createdAt,value
2018-02-14T03:30:01.689Z,99.90
2018-02-14T03:32:29.437Z,99.90
2018-02-14T03:34:57.198Z,99.90
2018-02-14T03:37:24.996Z,99.90
2018-02-14T03:39:53.525Z,99.90
2018-02-14T03:42:21.400Z,99.90
2018-02-14T03:44:49.206Z,99.90
2018-02-14T03:47:17.905Z,99.90
2018-02-14T03:49:45.652Z,99.90
2018-02-14T03:52:13.462Z,99.90
2018-02-14T03:54:41.209Z,99.90
2018-02-14T03:57:08.978Z,99.90
2018-02-14T03:59:36.783Z,99.90
2018-02-14T04:02:05.292Z,99.90
2018-02-14T04:04:33.039Z,99.90
2018-02-14T04:07:01.599Z,99.90
2018-02-14T04:09:29.341Z,99.90
2018-02-14T04:11:57.093Z,99.90
2018-02-14T04:14:24.901Z,99.90
2018-02-14T04:16:53.433Z,99.90
2018-02-14T04:19:21.205Z,99.90
2018-02-14T04:21:49.175Z,99.90
2018-02-14T04:24:16.949Z,99.90
2018-02-14T04:26:44.713Z,99.90
2018-02-14T04:29:12.550Z,99.90
2018-02-14T04:31:40.317Z,99.90
2018-02-14T04:34:08.100Z,99.90
2018-02-14T04:36:35.904Z,99.90
2018-02-14T04:39:03.721Z,99.90
2018-02-14T04:41:31.463Z,99.90
2018-02-14T04:43:59.320Z,99.90
2018-02-14T04:46:27.074Z,99.90
2018-02-14T04:48:54.814Z,99.90
2018-02-14T04:51:22.615Z,99.90
2018-02-14T04:53:50.365Z,99.90
2018-02-14T04:56:18.114Z,99.90
2018-02-14T04:58:45.908Z,99.90
2018-02-14T05:01:13.755Z,99.90
2018-02-14T05:03:42.350Z,99.90
2018-02-14T05:06:10.193Z,99.90
2018-02-14T05:08:37.951Z,99.90
2018-02-14T05:11:05.705Z,99.90
2018-02-14T05:13:34.335Z,99.90
2018-02-14T05:16:02.905Z,99.90
2018-02-14T05:18:30.754Z,99.90
2018-02-14T05:20:58.613Z,99.90
2018-02-14T05:23:26.366Z,99.90
2018-02-14T05:25:54.122Z,99.90
2018-02-14T05:28:21.917Z,99.90
2018-02-14T05:30:49.681Z,99.90
2018-02-14T05:33:17.441Z,99.90
2018-02-14T05:35:45.256Z,99.90
2018-02-14T05:38:13.085Z,99.90
2018-02-14T05:40:41.597Z,99.90
2018-02-14T05:43:09.398Z,99.90
2018-02-14T05:45:37.142Z,99.90
2018-02-14T05:48:05.231Z,99.90
2018-02-14T05:50:33.030Z,99.90
2018-02-14T05:53:01.535Z,99.90
2018-02-14T05:55:29.284Z,99.90
2018-02-14T05:57:57.158Z,99.90
2018-02-14T06:00:24.913Z,99.90
2018-02-14T06:02:52.678Z,99.90
2018-02-14T06:05:20.483Z,99.90
2018-02-14T06:07:48.225Z,99.90
2018-02-14T06:10:15.972Z,99.90
2018-02-14T06:12:43.791Z,99.90
2018-02-14T06:15:11.542Z,99.90
2018-02-14T06:17:39.289Z,99.90
2018-02-14T06:20:07.098Z,99.90
2018-02-14T06:22:35.621Z,99.90
2018-02-14T06:25:03.378Z,99.90
2018-02-14T06:27:31.173Z,99.90
2018-02-14T06:29:58.918Z,99.90
2018-02-14T06:32:26.693Z,99.90
2018-02-14T06:34:54.542Z,99.90
2018-02-14T06:37:22.304Z,99.90
2018-02-14T06:39:50.053Z,99.90
2018-02-14T06:42:17.849Z,99.90
2018-02-14T06:44:45.594Z,99.90
2018-02-14T06:47:13.357Z,99.90
2018-02-14T06:49:41.158Z,99.90
2018-02-14T06:52:09.669Z,99.90
2018-02-14T06:54:37.419Z,99.90
2018-02-14T06:57:05.229Z,99.90
2018-02-14T06:59:32.964Z,99.90
2018-02-14T07:02:00.700Z,99.90
2018-02-14T07:04:28.507Z,99.90
2018-02-14T07:06:56.255Z,99.90
2018-02-14T07:09:24.137Z,99.90
2018-02-14T07:11:51.940Z,99.90
2018-02-14T07:14:20.469Z,99.90
2018-02-14T07:16:48.212Z,99.90
2018-02-14T07:19:16.027Z,99.90
2018-02-14T07:21:44.535Z,99.90
2018-02-14T07:24:12.285Z,99.90
2018-02-14T07:26:40.856Z,99.90
2018-02-14T07:29:09.387Z,99.90
2018-02-14T07:31:37.137Z,99.90
2018-02-14T07:34:04.942Z,99.90
2018-02-14T07:36:32.694Z,99.90
2018-02-14T07:39:00.445Z,99.90
2018-02-14T07:41:28.256Z,99.90
2018-02-14T07:43:56.769Z,93.90
2018-02-14T07:46:24.521Z,94.00
2018-02-14T07:48:52.328Z,85.40
2018-02-14T07:51:20.095Z,67.30
2018-02-14T07:53:47.837Z,56.10
2018-02-14T07:56:15.652Z,51.70
2018-02-14T07:58:43.404Z,48.90
2018-02-14T08:01:11.929Z,48.50
2018-02-14T08:03:39.720Z,48.60
2018-02-14T08:06:07.463Z,51.10
2018-02-14T08:08:35.215Z,57.00
2018-02-14T08:11:03.008Z,68.20
2018-02-14T08:13:30.763Z,79.00
2018-02-14T08:15:58.512Z,86.50
2018-02-14T08:18:26.304Z,90.40
2018-02-14T08:20:54.824Z,94.60
2018-02-14T08:23:22.650Z,94.60
2018-02-14T08:25:51.233Z,96.50
2018-02-14T08:28:20.902Z,95.90
2018-02-14T08:30:49.987Z,90.20
2018-02-14T08:33:19.248Z,90.10
2018-02-14T08:35:48.054Z,65.10
2018-02-14T08:38:15.806Z,64.90
2018-02-14T08:40:43.604Z,65.50
2018-02-14T08:43:11.359Z,66.70
2018-02-14T08:45:39.113Z,72.10
2018-02-14T08:48:06.913Z,78.30
2018-02-14T08:50:34.656Z,78.80
2018-02-14T08:53:02.413Z,69.50
2018-02-14T08:55:30.257Z,57.60
2018-02-14T08:57:58.004Z,48.40
2018-02-14T09:00:25.749Z,42.90
2018-02-14T09:02:53.583Z,41.50
2018-02-14T09:05:21.340Z,40.40
2018-02-14T09:07:49.093Z,41.40
2018-02-14T09:10:16.893Z,40.40
2018-02-14T09:12:45.421Z,47.50
2018-02-14T09:15:13.175Z,47.50
2018-02-14T09:17:40.969Z,53.20
2018-02-14T09:20:08.717Z,57.80
2018-02-14T09:22:36.453Z,61.00
2018-02-14T09:25:04.289Z,63.90
2018-02-14T09:27:32.053Z,68.60
2018-02-14T09:29:59.790Z,69.90
2018-02-14T09:32:28.357Z,79.70
2018-02-14T09:34:56.104Z,79.80
2018-02-14T09:37:23.846Z,83.00
2018-02-14T09:39:51.649Z,82.10
2018-02-14T09:42:19.392Z,77.10
2018-02-14T09:44:47.132Z,76.10
2018-02-14T09:47:14.937Z,73.90
2018-02-14T09:49:42.717Z,67.60
2018-02-14T09:52:11.228Z,71.10
2018-02-14T09:54:39.026Z,71.10
2018-02-14T09:57:06.774Z,70.90
2018-02-14T09:59:34.517Z,74.80
2018-02-14T10:02:02.313Z,75.10
2018-02-14T10:04:30.056Z,75.40
2018-02-14T10:06:57.811Z,77.90
2018-02-14T10:09:25.614Z,75.30
2018-02-14T10:11:54.149Z,70.70
2018-02-14T10:14:21.899Z,70.60
2018-02-14T10:16:50.515Z,73.60
2018-02-14T10:19:18.254Z,75.30
2018-02-14T10:21:45.997Z,71.70
2018-02-14T10:24:13.804Z,72.60
2018-02-14T10:26:41.544Z,72.50
2018-02-14T10:29:09.285Z,73.30
2018-02-14T10:31:37.073Z,71.40
2018-02-14T10:34:04.820Z,73.10
2018-02-14T10:36:32.559Z,72.40
2018-02-14T10:39:00.361Z,73.20
2018-02-14T10:41:28.103Z,74.90
2018-02-14T10:43:55.842Z,76.00
2018-02-14T10:46:23.760Z,77.30
2018-02-14T10:48:51.496Z,79.10
2018-02-14T10:51:19.232Z,80.60
2018-02-14T10:53:47.034Z,83.70
2018-02-14T10:56:14.781Z,84.40
2018-02-14T10:58:42.529Z,85.10
2018-02-14T11:01:15.927Z,85.70
2018-02-14T11:03:43.676Z,82.80
2018-02-14T11:06:13.344Z,86.60
2018-02-14T11:08:41.137Z,88.40
2018-02-14T11:11:09.632Z,91.10
2018-02-14T11:13:37.414Z,93.70
2018-02-14T11:16:05.233Z,92.20
2018-02-14T11:18:32.978Z,93.50
2018-02-14T11:21:01.482Z,91.60
2018-02-14T11:23:29.295Z,91.60
2018-02-14T11:25:57.045Z,93.10
2018-02-14T11:28:24.801Z,94.40
2018-02-14T11:30:52.597Z,94.30
2018-02-14T11:33:20.349Z,95.30
2018-02-14T11:35:48.096Z,94.60
2018-02-14T11:38:15.898Z,92.30
2018-02-14T11:40:44.412Z,89.50
2018-02-14T11:43:12.161Z,89.50
2018-02-14T11:45:39.965Z,91.40
2018-02-14T11:48:07.713Z,92.70
2018-02-14T11:50:35.449Z,93.60
2018-02-14T11:53:03.245Z,93.80
2018-02-14T11:55:31.006Z,95.30
2018-02-14T11:57:58.756Z,94.70
2018-02-14T12:00:26.553Z,95.90
2018-02-14T12:02:54.296Z,96.90
2018-02-14T12:05:22.036Z,98.50
2018-02-14T12:07:49.829Z,96.90
2018-02-14T12:10:17.574Z,94.30
2018-02-14T12:12:46.092Z,98.50
2018-02-14T12:15:14.653Z,99.20
2018-02-14T12:17:42.398Z,99.20
2018-02-14T12:20:10.148Z,99.90
2018-02-14T12:22:37.972Z,99.90
2018-02-14T12:25:05.712Z,99.90
2018-02-14T12:27:33.449Z,99.90
2018-02-14T12:30:01.245Z,99.30
2018-02-14T12:32:29.801Z,98.70
2018-02-14T12:34:57.548Z,98.60
2018-02-14T12:37:26.110Z,98.50
2018-02-14T12:39:53.849Z,98.50
2018-02-14T12:42:21.612Z,97.90
2018-02-14T12:44:49.407Z,98.60
2018-02-14T12:47:17.153Z,99.90
2018-02-14T12:49:44.894Z,99.90
2018-02-14T12:52:12.695Z,99.90
2018-02-14T12:54:40.461Z,99.10
2018-02-14T12:57:08.200Z,99.10
2018-02-14T12:59:35.993Z,98.70
2018-02-14T13:02:03.735Z,99.90
2018-02-14T13:04:31.488Z,99.90
2018-02-14T13:06:59.284Z,99.90
2018-02-14T13:09:27.032Z,99.90
2018-02-14T13:11:54.780Z,99.90
2018-02-14T13:14:22.580Z,99.90
2018-02-14T13:16:50.323Z,99.90
2018-02-14T13:19:18.078Z,99.90
2018-02-14T13:21:45.872Z,99.90
2018-02-14T13:24:14.386Z,99.90
2018-02-14T13:26:42.130Z,99.90
2018-02-14T13:29:09.948Z,99.90
2018-02-14T13:31:37.688Z,99.90
2018-02-14T13:34:05.428Z,99.90
2018-02-14T13:36:33.641Z,99.90
2018-02-14T13:39:01.417Z,99.90
2018-02-14T13:41:29.186Z,99.90
2018-02-14T13:43:56.990Z,99.90
2018-02-14T13:46:24.732Z,99.90
2018-02-14T13:48:53.245Z,99.90
2018-02-14T13:51:21.045Z,99.90
2018-02-14T13:53:48.816Z,99.90
2018-02-14T13:56:16.559Z,99.90
2018-02-14T13:58:44.358Z,99.90
2018-02-14T14:01:12.888Z,99.90
2018-02-14T14:03:40.636Z,99.90
2018-02-14T14:06:08.426Z,99.90
2018-02-14T14:08:36.174Z,99.90
2018-02-14T14:11:04.810Z,99.90
2018-02-14T14:13:32.609Z,99.90
2018-02-14T14:16:00.353Z,99.90
2018-02-14T14:18:28.103Z,99.90
2018-02-14T14:20:55.923Z,99.90
2018-02-14T14:23:23.677Z,99.90
2018-02-14T14:25:51.424Z,99.90
2018-02-14T14:28:19.227Z,99.90
2018-02-14T14:30:47.742Z,99.90
2018-02-14T14:33:15.484Z,99.90
2018-02-14T14:35:43.281Z,99.90
2018-02-14T14:38:11.021Z,99.90
2018-02-14T14:40:38.764Z,99.90
2018-02-14T14:43:07.325Z,99.90
2018-02-14T14:45:35.078Z,99.90
2018-02-14T14:48:02.832Z,99.90
2018-02-14T14:50:30.633Z,99.90
2018-02-14T14:52:59.173Z,99.90
2018-02-14T14:55:26.930Z,99.90
2018-02-14T14:57:54.733Z,99.90
2018-02-14T15:00:23.250Z,99.90
2018-02-14T15:02:50.995Z,99.90
2018-02-14T15:05:18.813Z,99.90
2018-02-14T15:07:46.560Z,99.90
2018-02-14T15:10:14.307Z,99.90
2018-02-14T15:12:42.109Z,99.90
2018-02-14T15:15:09.848Z,99.90
2018-02-14T15:17:37.612Z,99.90
2018-02-14T15:20:05.413Z,99.90
2018-02-14T15:22:33.919Z,99.90
2018-02-14T15:25:01.661Z,99.90
2018-02-14T15:27:29.462Z,99.90
2018-02-14T15:29:57.973Z,99.90
2018-02-14T15:32:25.711Z,99.90
2018-02-14T15:34:54.271Z,99.90
2018-02-14T15:37:22.013Z,99.90
2018-02-14T15:39:49.776Z,99.90
2018-02-14T15:42:17.583Z,99.90
2018-02-14T15:44:45.338Z,99.90
2018-02-14T15:47:13.128Z,99.90
2018-02-14T15:49:41.712Z,99.90
2018-02-14T15:52:09.456Z,99.90
2018-02-14T15:54:37.205Z,99.90
2018-02-14T15:57:05.010Z,99.90
2018-02-14T15:59:33.519Z,99.90
2018-02-14T16:02:01.264Z,99.90
2018-02-14T16:04:29.897Z,99.90
2018-02-14T16:06:57.672Z,99.90
2018-02-14T16:09:25.434Z,99.90
2018-02-14T16:11:53.229Z,99.90
2018-02-14T16:14:20.970Z,99.90
2018-02-14T16:16:49.490Z,99.90
2018-02-14T16:19:17.346Z,99.90
2018-02-14T16:21:45.095Z,99.90
2018-02-14T16:24:12.836Z,99.90
2018-02-14T16:26:41.400Z,99.90
2018-02-14T16:29:09.139Z,99.90
2018-02-14T16:31:37.908Z,99.90
2018-02-14T16:34:05.711Z,99.90
2018-02-14T16:36:33.456Z,99.90
2018-02-14T16:39:01.961Z,99.90
2018-02-14T16:41:30.533Z,99.90
2018-02-14T16:43:58.276Z,99.90
2018-02-14T16:46:26.027Z,99.90
2018-02-14T16:48:53.847Z,99.90
2018-02-14T16:51:21.629Z,99.90
2018-02-14T16:53:49.378Z,99.90
2018-02-14T16:56:17.182Z,99.90
2018-02-14T16:58:44.917Z,99.90
2018-02-14T17:01:12.657Z,99.90
2018-02-14T17:03:40.455Z,99.90
2018-02-14T17:06:08.199Z,99.90
2018-02-14T17:08:35.993Z,99.90
2018-02-14T17:11:03.793Z,99.90
2018-02-14T17:13:32.305Z,99.90
2018-02-14T17:16:00.046Z,99.90
2018-02-14T17:18:27.857Z,99.90
2018-02-14T17:20:55.603Z,99.90
2018-02-14T17:23:23.346Z,99.90
2018-02-14T17:25:51.144Z,99.90
2018-02-14T17:28:18.886Z,99.90
2018-02-14T17:30:46.632Z,99.90
2018-02-14T17:33:14.429Z,99.90
2018-02-14T17:35:42.189Z,99.90
2018-02-14T17:38:09.937Z,99.90
2018-02-14T17:40:37.729Z,99.90
2018-02-14T17:43:05.483Z,99.90
2018-02-14T17:45:33.233Z,99.90
2018-02-14T17:48:01.033Z,99.90
2018-02-14T17:50:29.540Z,99.90
2018-02-14T17:52:57.276Z,99.90
2018-02-14T17:55:25.845Z,99.90
2018-02-14T17:57:53.587Z,99.90
2018-02-14T18:00:21.335Z,99.90
2018-02-14T18:02:49.133Z,99.90
2018-02-14T18:05:16.881Z,99.90
2018-02-14T18:07:44.625Z,99.90
2018-02-14T18:10:12.417Z,99.90
2018-02-14T18:12:40.157Z,99.90
2018-02-14T18:15:07.897Z,99.90
2018-02-14T18:17:35.698Z,99.90
2018-02-14T18:20:03.454Z,99.90
2018-02-14T18:22:31.211Z,99.90
2018-02-14T18:24:59.077Z,99.90
2018-02-14T18:27:26.824Z,99.90
2018-02-14T18:29:54.576Z,99.90
2018-02-14T18:32:22.404Z,99.90
2018-02-14T18:34:50.147Z,99.90
2018-02-14T18:37:18.658Z,99.90
2018-02-14T18:39:46.456Z,99.90
2018-02-14T18:42:16.186Z,99.90
2018-02-14T18:44:44.214Z,99.90
2018-02-14T18:47:12.021Z,99.90
2018-02-14T18:49:40.540Z,99.90
2018-02-14T18:52:08.292Z,99.90
2018-02-14T18:54:36.325Z,99.90
2018-02-14T18:57:04.836Z,99.90
2018-02-14T18:59:32.576Z,99.90
2018-02-14T19:02:01.138Z,99.90
2018-02-14T19:04:28.908Z,99.90
2018-02-14T19:06:57.423Z,99.90
2018-02-14T19:09:25.237Z,99.90
2018-02-14T19:11:52.981Z,99.90
2018-02-14T19:14:20.736Z,99.90
2018-02-14T19:16:48.539Z,99.90
2018-02-14T19:19:17.049Z,99.90
2018-02-14T19:21:44.795Z,99.90
2018-02-14T19:24:13.391Z,99.90
2018-02-14T19:26:41.163Z,99.90
2018-02-14T19:29:08.906Z,99.90
2018-02-14T19:31:36.710Z,99.90
2018-02-14T19:34:04.444Z,99.90
2018-02-14T19:36:32.196Z,99.90
2018-02-14T19:39:00.017Z,99.90
2018-02-14T19:41:27.774Z,99.90
2018-02-14T19:43:55.526Z,99.90
2018-02-14T19:46:23.332Z,99.90
2018-02-14T19:48:51.874Z,99.90
2018-02-14T19:51:19.611Z,99.90
2018-02-14T19:53:47.421Z,99.90
2018-02-14T19:56:15.177Z,99.90
2018-02-14T19:58:42.917Z,99.90
2018-02-14T20:01:10.738Z,99.90
2018-02-14T20:03:38.498Z,99.90
2018-02-14T20:06:06.257Z,99.90
2018-02-14T20:08:34.053Z,99.90
2018-02-14T20:11:01.801Z,99.90
2018-02-14T20:13:29.545Z,99.90
2018-02-14T20:15:57.362Z,99.90
2018-02-14T20:18:25.114Z,99.90
2018-02-14T20:20:52.851Z,99.90
2018-02-14T20:23:20.662Z,99.90
2018-02-14T20:25:48.416Z,99.90
2018-02-14T20:28:16.157Z,99.90
2018-02-14T20:30:44.011Z,99.90
2018-02-14T20:33:11.769Z,99.90
2018-02-14T20:35:39.790Z,99.90
2018-02-14T20:38:08.405Z,99.90
2018-02-14T20:40:36.280Z,99.90
2018-02-14T20:43:04.028Z,99.90
2018-02-14T20:45:31.856Z,99.90
2018-02-14T20:48:00.421Z,99.90
2018-02-14T20:50:28.202Z,99.90
2018-02-14T20:52:56.779Z,99.90
2018-02-14T20:55:25.296Z,99.90
2018-02-14T20:57:53.101Z,99.90
2018-02-14T21:00:20.972Z,99.90
2018-02-14T21:02:48.733Z,99.90
2018-02-14T21:05:16.489Z,99.90
2018-02-14T21:07:44.292Z,99.90
2018-02-14T21:10:12.047Z,99.90
2018-02-14T21:12:39.854Z,99.90
2018-02-14T21:15:07.711Z,99.90
2018-02-14T21:17:35.551Z,99.90
2018-02-14T21:20:03.314Z,99.90
2018-02-14T21:22:31.141Z,99.90
2018-02-14T21:24:59.660Z,99.90
2018-02-14T21:27:27.436Z,99.90
2018-02-14T21:29:55.937Z,99.90
2018-02-14T21:32:23.691Z,99.90
2018-02-14T21:34:51.452Z,99.90
2018-02-14T21:37:19.253Z,99.90
2018-02-14T21:39:46.998Z,99.90
2018-02-14T21:42:14.747Z,99.90
2018-02-14T21:44:42.575Z,99.90
2018-02-14T21:47:10.369Z,99.90
2018-02-14T21:49:38.121Z,99.90
2018-02-14T21:52:05.916Z,99.90
2018-02-14T21:54:34.694Z,99.90
2018-02-14T21:57:02.752Z,99.90
2018-02-14T21:59:30.595Z,99.90
2018-02-14T22:01:58.374Z,99.90
2018-02-14T22:04:26.118Z,99.90
2018-02-14T22:06:53.929Z,99.90
2018-02-14T22:09:22.446Z,99.90
2018-02-14T22:11:50.185Z,99.90
2018-02-14T22:14:18.008Z,99.90
2018-02-14T22:16:45.755Z,99.90
2018-02-14T22:19:13.552Z,99.90
2018-02-14T22:21:42.128Z,99.90
2018-02-14T22:24:09.877Z,99.90
2018-02-14T22:26:37.628Z,99.90
2018-02-14T22:29:05.424Z,99.90
2018-02-14T22:31:33.928Z,99.90
2018-02-14T22:34:01.668Z,99.90
2018-02-14T22:36:30.233Z,99.90
2018-02-14T22:38:57.978Z,99.90
2018-02-14T22:41:25.720Z,99.90
2018-02-14T22:43:53.518Z,99.90
2018-02-14T22:46:21.261Z,99.90
2018-02-14T22:48:49.002Z,99.90
2018-02-14T22:51:16.800Z,99.90
2018-02-14T22:53:44.545Z,99.90
2018-02-14T22:56:12.282Z,99.90
2018-02-14T22:58:40.079Z,99.90
2018-02-14T23:01:07.826Z,99.90
2018-02-14T23:03:35.565Z,99.90
2018-02-14T23:06:03.362Z,99.90
2018-02-14T23:08:31.114Z,99.90
2018-02-14T23:10:58.856Z,99.90
2018-02-14T23:13:26.652Z,99.90
2018-02-14T23:15:54.392Z,99.90
2018-02-14T23:18:22.137Z,99.90
2018-02-14T23:20:49.940Z,99.90
2018-02-14T23:23:17.731Z,99.90
2018-02-14T23:25:46.245Z,99.90
2018-02-14T23:28:14.225Z,99.90
2018-02-14T23:30:41.972Z,99.90
2018-02-14T23:33:09.710Z,99.90
2018-02-14T23:35:37.508Z,99.90
2018-02-14T23:38:06.017Z,99.90
2018-02-14T23:40:33.764Z,99.90
2018-02-14T23:43:01.567Z,99.90
2018-02-14T23:45:29.313Z,99.90
2018-02-14T23:47:57.817Z,99.90
2018-02-14T23:50:25.621Z,99.90
2018-02-14T23:52:53.359Z,99.90
2018-02-14T23:55:22.850Z,99.90
2018-02-14T23:57:50.653Z,99.90
